Time;durP1;ratioP1;P1;durP2;ratioP2;P2;SDS_P1;SDS_P2;PMS_P1;PMS_P2;Temp;Humidity;BMP_temperature;BMP_pressure;BME280_temperature;BME280_humidity;BME280_pressure;Samples;Min_cycle;Max_cycle;Signal;HPM_P1;HPM_P2
2022/08/14 00:01:55;;;;;;;10.75;9.05;;;;;;;;;;5044315;28;20024;-59
2022/08/14 00:04:21;;;;;;;10.40;9.13;;;;;;;;;;5049467;28;20586;-59
2022/08/14 00:06:47;;;;;;;13.10;9.60;;;;;;;;;;5046191;28;20139;-59
2022/08/14 00:09:13;;;;;;;15.07;10.02;;;;;;;;;;5047173;28;20047;-59
2022/08/14 00:11:39;;;;;;;13.40;9.68;;;;;;;;;;5047661;28;20102;-59
2022/08/14 00:14:05;;;;;;;14.40;10.43;;;;;;;;;;5044766;28;20041;-59
2022/08/14 00:16:31;;;;;;;18.40;10.57;;;;;;;;;;5046001;28;20036;-59
2022/08/14 00:18:59;;;;;;;12.55;9.68;;;;;;;;;;5050395;28;20036;-60
2022/08/14 00:21:25;;;;;;;13.77;10.55;;;;;;;;;;5048919;28;20052;-59
2022/08/14 00:23:52;;;;;;;16.00;10.35;;;;;;;;;;5049745;28;20059;-59
2022/08/14 00:26:18;;;;;;;13.20;9.65;;;;;;;;;;5053664;28;20032;-58
2022/08/14 00:28:44;;;;;;;10.30;9.00;;;;;;;;;;5054497;28;20032;-58
2022/08/14 00:31:11;;;;;;;12.05;8.75;;;;;;;;;;5045856;28;20490;-59
2022/08/14 00:33:37;;;;;;;11.52;9.77;;;;;;;;;;5047664;28;20033;-59
2022/08/14 00:36:03;;;;;;;17.58;10.32;;;;;;;;;;5038119;28;20037;-59
2022/08/14 00:38:29;;;;;;;14.18;9.80;;;;;;;;;;5052133;28;20112;-60
2022/08/14 00:40:56;;;;;;;16.63;10.20;;;;;;;;;;5043035;28;20100;-59
2022/08/14 00:43:22;;;;;;;10.70;9.30;;;;;;;;;;5054215;28;20079;-59
2022/08/14 00:45:49;;;;;;;13.88;9.95;;;;;;;;;;5048657;28;20029;-60
2022/08/14 00:48:17;;;;;;;12.30;9.60;;;;;;;;;;5047983;28;20024;-59
2022/08/14 00:50:43;;;;;;;15.63;10.50;;;;;;;;;;5053432;28;20057;-59
2022/08/14 00:53:09;;;;;;;14.65;10.15;;;;;;;;;;5045976;28;20036;-59
2022/08/14 00:55:38;;;;;;;11.32;9.15;;;;;;;;;;5052993;28;20029;-59
2022/08/14 01:00:49;;;;;;;14.43;11.63;;;;;;;;;;5052168;28;20036;-59
2022/08/14 01:03:16;;;;;;;12.63;9.43;;;;;;;;;;5051915;28;20044;-61
2022/08/14 01:05:48;;;;;;;12.93;8.75;;;;;;;;;;5050989;28;20044;-60
2022/08/14 01:08:15;;;;;;;13.40;9.75;;;;;;;;;;5048372;28;20028;-60
2022/08/14 01:10:51;;;;;;;12.88;10.02;;;;;;;;;;5052792;28;20033;-60
2022/08/14 01:13:19;;;;;;;12.07;9.32;;;;;;;;;;5052218;28;20021;-60
2022/08/14 01:15:47;;;;;;;12.10;9.15;;;;;;;;;;5046886;28;20590;-61
2022/08/14 01:21:11;;;;;;;13.27;9.48;;;;;;;;;;5048903;28;20052;-60
2022/08/14 01:23:49;;;;;;;11.23;9.57;;;;;;;;;;5049387;28;20491;-61
2022/08/14 01:26:19;;;;;;;12.45;9.65;;;;;;;;;;5053044;28;20028;-61
2022/08/14 01:28:45;;;;;;;10.13;8.90;;;;;;;;;;5052143;28;20483;-61
2022/08/14 01:31:13;;;;;;;22.70;20.48;;;;;;;;;;5046858;28;20032;-61
2022/08/14 01:33:43;;;;;;;17.38;15.82;;;;;;;;;;5051231;28;20558;-61
2022/08/14 01:36:09;;;;;;;15.70;14.10;;;;;;;;;;5049755;28;20028;-61
2022/08/14 01:38:36;;;;;;;17.88;16.05;;;;;;;;;;5044389;28;20021;-61
2022/08/14 01:41:03;;;;;;;13.18;11.75;;;;;;;;;;5047386;28;20055;-61
2022/08/14 01:43:37;;;;;;;15.52;14.13;;;;;;;;;;5052673;28;20108;-61
2022/08/14 01:46:03;;;;;;;18.27;16.67;;;;;;;;;;5051179;28;20024;-61
2022/08/14 01:48:32;;;;;;;16.88;14.23;;;;;;;;;;5049550;28;20025;-61
2022/08/14 01:51:00;;;;;;;12.57;11.07;;;;;;;;;;5046415;28;20052;-61
2022/08/14 01:53:27;;;;;;;13.70;12.43;;;;;;;;;;5052987;28;20109;-61
2022/08/14 01:55:56;;;;;;;14.32;12.93;;;;;;;;;;5045960;28;20376;-61
2022/08/14 01:58:24;;;;;;;13.77;12.23;;;;;;;;;;5041513;28;20028;-60
2022/08/14 02:00:53;;;;;;;12.40;11.32;;;;;;;;;;5048219;28;20678;-60
2022/08/14 02:03:19;;;;;;;13.18;11.93;;;;;;;;;;5051773;28;20349;-61
2022/08/14 02:05:45;;;;;;;14.05;12.60;;;;;;;;;;5048371;28;20052;-61
2022/08/14 02:08:11;;;;;;;14.15;12.75;;;;;;;;;;5051545;28;20150;-60
2022/08/14 02:10:38;;;;;;;14.45;11.65;;;;;;;;;;5046027;28;20032;-60
2022/08/14 02:13:07;;;;;;;13.55;12.35;;;;;;;;;;5047540;28;20049;-61
2022/08/14 02:15:34;;;;;;;12.25;11.05;;;;;;;;;;5042715;28;20040;-60
2022/08/14 02:18:00;;;;;;;15.80;12.02;;;;;;;;;;5047054;28;20484;-60
2022/08/14 02:20:28;;;;;;;12.40;11.07;;;;;;;;;;5050614;28;20032;-61
2022/08/14 02:22:54;;;;;;;16.67;12.15;;;;;;;;;;5048314;28;20422;-60
2022/08/14 02:25:21;;;;;;;13.88;12.43;;;;;;;;;;5048582;28;20453;-60
2022/08/14 02:27:48;;;;;;;14.45;13.05;;;;;;;;;;5051703;28;20119;-60
2022/08/14 02:30:14;;;;;;;15.10;13.57;;;;;;;;;;5050762;28;20033;-60
2022/08/14 02:32:40;;;;;;;16.23;14.00;;;;;;;;;;5048065;28;20037;-61
2022/08/14 02:35:12;;;;;;;13.52;12.20;;;;;;;;;;5048888;28;20094;-61
2022/08/14 02:37:39;;;;;;;13.63;12.25;;;;;;;;;;5046394;28;20032;-61
2022/08/14 02:40:05;;;;;;;15.48;12.65;;;;;;;;;;5049470;28;20108;-61
2022/08/14 02:42:33;;;;;;;16.33;13.00;;;;;;;;;;5050459;28;20067;-61
2022/08/14 02:44:59;;;;;;;15.00;13.15;;;;;;;;;;5044890;28;20476;-61
2022/08/14 02:47:27;;;;;;;15.15;13.68;;;;;;;;;;5049299;28;20033;-61
2022/08/14 02:49:53;;;;;;;13.95;12.38;;;;;;;;;;5046863;28;20033;-61
2022/08/14 02:52:19;;;;;;;14.18;12.88;;;;;;;;;;5038001;28;20048;-61
2022/08/14 02:54:45;;;;;;;15.25;13.60;;;;;;;;;;5049306;28;20471;-61
2022/08/14 02:57:12;;;;;;;13.95;12.57;;;;;;;;;;5049371;28;20025;-61
2022/08/14 02:59:39;;;;;;;14.57;13.07;;;;;;;;;;5047451;28;20025;-60
2022/08/14 03:02:06;;;;;;;13.30;11.98;;;;;;;;;;5049624;28;20025;-60
2022/08/14 03:04:32;;;;;;;15.15;13.05;;;;;;;;;;5043897;28;20514;-61
2022/08/14 03:06:58;;;;;;;15.43;13.82;;;;;;;;;;5046435;28;20037;-61
2022/08/14 03:09:24;;;;;;;14.05;12.73;;;;;;;;;;5047275;28;20036;-61
2022/08/14 03:11:51;;;;;;;15.52;13.10;;;;;;;;;;5047108;28;20129;-61
2022/08/14 03:14:17;;;;;;;15.13;13.52;;;;;;;;;;5049761;28;20531;-60
2022/08/14 03:16:44;;;;;;;16.48;13.52;;;;;;;;;;5043863;28;20021;-61
2022/08/14 03:19:10;;;;;;;15.35;12.00;;;;;;;;;;5046025;28;20036;-60
2022/08/14 03:21:38;;;;;;;13.18;11.88;;;;;;;;;;5047639;28;20380;-60
2022/08/14 03:24:11;;;;;;;12.55;11.35;;;;;;;;;;5049067;28;20029;-60
2022/08/14 03:26:38;;;;;;;13.60;12.27;;;;;;;;;;5050155;28;20025;-60
2022/08/14 03:29:05;;;;;;;16.42;13.00;;;;;;;;;;5049281;28;20705;-60
2022/08/14 03:31:31;;;;;;;14.43;13.05;;;;;;;;;;5049086;28;20039;-60
2022/08/14 03:33:57;;;;;;;13.60;12.30;;;;;;;;;;5046844;28;20479;-61
2022/08/14 03:36:24;;;;;;;15.30;13.23;;;;;;;;;;5048062;28;20036;-61
2022/08/14 03:38:53;;;;;;;12.40;11.10;;;;;;;;;;5044671;28;20020;-61
2022/08/14 03:41:20;;;;;;;14.75;12.20;;;;;;;;;;5047079;28;20025;-61
2022/08/14 03:43:47;;;;;;;12.30;11.07;;;;;;;;;;5045800;28;20029;-61
2022/08/14 03:46:13;;;;;;;13.07;11.80;;;;;;;;;;5044273;28;20032;-61
2022/08/14 03:48:40;;;;;;;15.50;12.60;;;;;;;;;;5047090;28;20025;-61
2022/08/14 03:51:07;;;;;;;15.65;13.07;;;;;;;;;;5045595;28;20029;-61
2022/08/14 03:53:37;;;;;;;14.20;12.80;;;;;;;;;;5045108;28;20053;-60
2022/08/14 03:56:04;;;;;;;14.15;12.65;;;;;;;;;;5041573;28;20104;-60
2022/08/14 03:58:31;;;;;;;18.17;13.32;;;;;;;;;;5049297;28;20017;-61
2022/08/14 04:00:57;;;;;;;16.63;13.55;;;;;;;;;;5046845;28;20104;-61
2022/08/14 04:03:23;;;;;;;15.68;14.07;;;;;;;;;;5047832;28;20119;-61
2022/08/14 04:05:49;;;;;;;15.52;14.02;;;;;;;;;;5051037;28;20472;-60
2022/08/14 04:08:16;;;;;;;15.52;13.30;;;;;;;;;;5044862;28;20041;-60
2022/08/14 04:10:45;;;;;;;15.93;14.40;;;;;;;;;;5047586;28;20464;-60
2022/08/14 04:13:11;;;;;;;14.70;13.23;;;;;;;;;;5046493;28;20504;-60
2022/08/14 04:15:37;;;;;;;15.98;14.35;;;;;;;;;;5049410;28;20504;-61
2022/08/14 04:18:07;;;;;;;16.55;13.90;;;;;;;;;;5041996;28;20074;-61
2022/08/14 04:20:33;;;;;;;14.65;13.15;;;;;;;;;;5045823;28;20024;-61
2022/08/14 04:22:59;;;;;;;14.60;13.10;;;;;;;;;;5041469;28;20033;-61
2022/08/14 04:25:25;;;;;;;14.32;12.32;;;;;;;;;;5048431;28;20040;-60
2022/08/14 04:27:51;;;;;;;14.80;13.30;;;;;;;;;;5049506;28;20151;-60
2022/08/14 04:30:17;;;;;;;12.93;11.52;;;;;;;;;;5046581;28;20138;-61
2022/08/14 04:32:43;;;;;;;13.75;12.35;;;;;;;;;;5044892;28;20112;-60
2022/08/14 04:35:10;;;;;;;16.33;12.98;;;;;;;;;;5044927;28;20047;-61
2022/08/14 04:45:50;;;;;;;16.80;14.95;;;;;;;;;;5044081;28;20040;-61
2022/08/14 04:48:19;;;;;;;17.77;14.98;;;;;;;;;;5044503;28;20456;-60
2022/08/14 04:50:47;;;;;;;17.75;14.68;;;;;;;;;;5050206;28;20056;-60
2022/08/14 04:53:14;;;;;;;17.13;15.43;;;;;;;;;;5037449;28;20458;-60
2022/08/14 04:55:47;;;;;;;18.73;16.35;;;;;;;;;;5047365;28;20168;-60
2022/08/14 04:58:13;;;;;;;15.32;13.73;;;;;;;;;;5049083;28;20029;-60
2022/08/14 05:00:39;;;;;;;15.80;14.20;;;;;;;;;;5048936;28;20033;-60
2022/08/14 05:03:06;;;;;;;17.85;15.52;;;;;;;;;;5044956;28;20078;-61
2022/08/14 05:05:32;;;;;;;13.95;12.50;;;;;;;;;;5050077;28;20040;-61
2022/08/14 05:08:07;;;;;;;17.88;16.10;;;;;;;;;;5049941;28;20068;-60
2022/08/14 05:10:34;;;;;;;14.18;12.75;;;;;;;;;;5043931;28;20108;-61
2022/08/14 05:13:00;;;;;;;15.55;13.93;;;;;;;;;;5051090;28;20029;-60
2022/08/14 05:15:29;;;;;;;16.75;13.85;;;;;;;;;;5054381;28;20021;-61
2022/08/14 05:17:55;;;;;;;18.58;13.80;;;;;;;;;;5053454;28;20033;-60
2022/08/14 05:20:21;;;;;;;14.75;13.23;;;;;;;;;;5048733;28;20056;-61
2022/08/14 05:22:48;;;;;;;14.73;13.23;;;;;;;;;;5049672;28;20071;-60
2022/08/14 05:25:13;;;;;;;14.13;12.35;;;;;;;;;;5049903;28;20083;-61
2022/08/14 05:27:39;;;;;;;15.73;13.00;;;;;;;;;;5052687;28;20033;-61
2022/08/14 05:30:06;;;;;;;14.82;13.27;;;;;;;;;;5052518;28;20032;-61
2022/08/14 05:32:32;;;;;;;14.48;12.98;;;;;;;;;;5051974;28;20041;-61
2022/08/14 05:34:59;;;;;;;15.90;13.88;;;;;;;;;;5050606;28;20032;-60
2022/08/14 05:37:26;;;;;;;15.95;14.27;;;;;;;;;;5041793;28;20056;-60
2022/08/14 05:39:52;;;;;;;17.38;14.63;;;;;;;;;;5051222;28;20032;-61
2022/08/14 05:42:18;;;;;;;20.35;15.43;;;;;;;;;;5050047;28;20068;-61
2022/08/14 05:44:44;;;;;;;18.17;16.23;;;;;;;;;;5044734;28;20462;-60
2022/08/14 05:47:10;;;;;;;18.25;16.45;;;;;;;;;;5049070;28;20380;-61
2022/08/14 05:49:36;;;;;;;18.27;15.25;;;;;;;;;;5051252;28;20033;-60
2022/08/14 05:52:02;;;;;;;18.27;16.40;;;;;;;;;;5051469;28;20437;-60
2022/08/14 05:54:29;;;;;;;16.17;14.55;;;;;;;;;;5048743;28;20062;-60
2022/08/14 05:56:56;;;;;;;17.92;16.10;;;;;;;;;;5053771;28;20468;-60
2022/08/14 05:59:22;;;;;;;19.42;15.55;;;;;;;;;;5049596;28;20028;-61
2022/08/14 06:01:48;;;;;;;20.55;17.58;;;;;;;;;;5049383;28;20036;-60
2022/08/14 06:04:14;;;;;;;14.90;13.40;;;;;;;;;;5042918;28;20091;-60
2022/08/14 06:06:40;;;;;;;15.80;13.95;;;;;;;;;;5047550;28;20025;-60
2022/08/14 06:09:07;;;;;;;17.58;15.07;;;;;;;;;;5048356;28;20041;-60
2022/08/14 06:11:33;;;;;;;17.67;14.13;;;;;;;;;;5042348;28;20031;-60
2022/08/14 06:13:59;;;;;;;18.23;16.50;;;;;;;;;;5051276;28;20141;-61
2022/08/14 06:16:25;;;;;;;17.38;14.80;;;;;;;;;;5046967;28;20029;-60
2022/08/14 06:18:51;;;;;;;15.43;13.52;;;;;;;;;;5044315;28;20112;-60
2022/08/14 06:21:17;;;;;;;15.23;13.73;;;;;;;;;;5050330;28;20036;-60
2022/08/14 06:23:43;;;;;;;17.50;15.20;;;;;;;;;;5045065;28;20033;-60
2022/08/14 06:26:10;;;;;;;16.00;14.13;;;;;;;;;;5045673;28;20050;-60
2022/08/14 06:28:36;;;;;;;14.85;13.35;;;;;;;;;;5051183;28;20036;-60
2022/08/14 06:31:02;;;;;;;16.52;14.55;;;;;;;;;;5047324;28;20017;-60
2022/08/14 06:33:28;;;;;;;17.50;15.32;;;;;;;;;;5052349;28;20147;-60
2022/08/14 06:35:54;;;;;;;14.35;12.82;;;;;;;;;;5050667;28;20039;-60
2022/08/14 06:38:21;;;;;;;14.38;12.93;;;;;;;;;;5046045;28;20021;-59
2022/08/14 06:40:48;;;;;;;13.95;12.38;;;;;;;;;;5045799;28;20376;-59
2022/08/14 06:43:14;;;;;;;14.07;12.63;;;;;;;;;;5050121;28;20531;-59
2022/08/14 06:45:41;;;;;;;19.00;13.77;;;;;;;;;;5049070;28;20032;-59
2022/08/14 06:48:18;;;;;;;14.75;12.57;;;;;;;;;;5041741;28;20048;-59
2022/08/14 06:50:44;;;;;;;14.73;11.77;;;;;;;;;;5047894;28;20739;-59
2022/08/14 06:53:13;;;;;;;15.07;10.55;;;;;;;;;;5049281;28;20035;-59
2022/08/14 06:55:40;;;;;;;11.50;10.23;;;;;;;;;;5051568;28;20112;-59
2022/08/14 06:58:10;;;;;;;11.48;10.05;;;;;;;;;;5048383;28;20025;-59
2022/08/14 07:00:36;;;;;;;10.90;9.80;;;;;;;;;;5046826;28;20029;-59
2022/08/14 07:05:47;;;;;;;14.82;9.85;;;;;;;;;;5051404;28;20044;-59
2022/08/14 07:08:17;;;;;;;12.25;10.65;;;;;;;;;;5048482;28;21601;-60
2022/08/14 07:10:48;;;;;;;10.52;9.40;;;;;;;;;;5047381;28;20032;-59
2022/08/14 07:13:16;;;;;;;10.75;9.63;;;;;;;;;;5044603;28;20041;-59
2022/08/14 07:15:44;;;;;;;14.20;9.13;;;;;;;;;;5050893;28;20506;-60
2022/08/14 07:18:11;;;;;;;13.98;8.73;;;;;;;;;;5041110;28;20025;-59
2022/08/14 07:20:37;;;;;;;10.57;8.60;;;;;;;;;;5048015;28;20055;-60
2022/08/14 07:23:05;;;;;;;10.98;8.85;;;;;;;;;;5049834;28;20498;-59
2022/08/14 07:25:31;;;;;;;9.98;8.93;;;;;;;;;;5040625;28;20124;-59
2022/08/14 07:27:57;;;;;;;11.50;7.95;;;;;;;;;;5048620;28;20530;-59
2022/08/14 07:30:23;;;;;;;12.57;8.35;;;;;;;;;;5048585;28;20038;-59
2022/08/14 07:32:49;;;;;;;9.55;7.45;;;;;;;;;;5046435;28;20050;-59
2022/08/14 07:35:15;;;;;;;10.45;7.13;;;;;;;;;;5047217;28;20048;-60
2022/08/14 07:37:41;;;;;;;8.18;6.82;;;;;;;;;;5051121;28;20024;-60
2022/08/14 07:40:08;;;;;;;13.15;6.63;;;;;;;;;;5047457;28;20025;-60
2022/08/14 07:42:34;;;;;;;9.45;6.78;;;;;;;;;;5045023;28;20025;-59
2022/08/14 07:45:00;;;;;;;8.93;6.93;;;;;;;;;;5041160;28;20392;-59
2022/08/14 07:47:26;;;;;;;7.85;6.72;;;;;;;;;;5051508;28;20478;-59
2022/08/14 07:50:04;;;;;;;8.18;6.70;;;;;;;;;;5049962;28;20029;-59
2022/08/14 07:52:30;;;;;;;10.32;5.70;;;;;;;;;;5045217;28;20154;-60
2022/08/14 07:54:56;;;;;;;6.95;5.88;;;;;;;;;;5050121;28;20069;-60
2022/08/14 07:57:23;;;;;;;8.23;5.75;;;;;;;;;;5050449;28;20068;-60
2022/08/14 07:59:49;;;;;;;9.77;5.80;;;;;;;;;;5042844;28;20387;-59
2022/08/14 08:02:15;;;;;;;7.63;5.65;;;;;;;;;;5047670;28;20100;-59
2022/08/14 08:04:44;;;;;;;9.65;6.07;;;;;;;;;;5047082;28;20041;-59
2022/08/14 08:07:10;;;;;;;10.18;5.85;;;;;;;;;;5042729;28;20122;-60
2022/08/14 08:09:36;;;;;;;11.43;5.80;;;;;;;;;;5048657;28;20051;-60
2022/08/14 08:12:04;;;;;;;11.70;6.88;;;;;;;;;;5039694;28;20025;-58
2022/08/14 08:14:31;;;;;;;7.10;5.65;;;;;;;;;;5044205;28;20029;-59
2022/08/14 08:16:59;;;;;;;8.77;6.55;;;;;;;;;;5045702;28;20108;-60
2022/08/14 08:19:25;;;;;;;10.35;6.78;;;;;;;;;;5043737;28;20029;-60
2022/08/14 08:21:51;;;;;;;8.32;5.75;;;;;;;;;;5049975;28;20032;-59
2022/08/14 08:24:17;;;;;;;6.95;5.72;;;;;;;;;;5044849;28;20035;-59
2022/08/14 08:26:43;;;;;;;8.10;5.75;;;;;;;;;;5044588;28;20033;-60
2022/08/14 08:29:09;;;;;;;11.80;6.55;;;;;;;;;;5045972;28;20082;-59
2022/08/14 08:31:46;;;;;;;10.15;5.60;;;;;;;;;;5046980;28;20028;-59
2022/08/14 08:34:13;;;;;;;7.90;5.65;;;;;;;;;;5036826;28;20399;-59
2022/08/14 08:36:42;;;;;;;6.45;5.53;;;;;;;;;;5050534;28;20439;-59
2022/08/14 08:39:08;;;;;;;9.00;5.28;;;;;;;;;;5047988;28;20032;-59
2022/08/14 08:41:42;;;;;;;11.10;6.03;;;;;;;;;;5041166;28;20025;-60
2022/08/14 08:44:08;;;;;;;;;;;;;;;;;;5044555;28;20029;-59
2022/08/14 08:46:34;;;;;;;11.48;5.25;;;;;;;;;;5043489;28;19915;-60
2022/08/14 08:48:59;;;;;;;8.00;5.68;;;;;;;;;;5052643;28;20033;-57
2022/08/14 08:51:34;;;;;;;7.25;6.18;;;;;;;;;;5051777;28;20026;-59
2022/08/14 08:54:02;;;;;;;8.32;5.55;;;;;;;;;;5050685;28;20112;-59
2022/08/14 08:56:35;;;;;;;6.90;5.60;;;;;;;;;;5052203;28;20029;-59
2022/08/14 08:59:01;;;;;;;;;;;;;;;;;;5052595;28;20029;-57
2022/08/14 09:01:30;;;;;;;7.75;5.47;;;;;;;;;;5049968;28;19943;-60
2022/08/14 09:04:03;;;;;;;6.50;5.00;;;;;;;;;;5053010;28;20035;-59
2022/08/14 09:06:29;;;;;;;9.63;5.53;;;;;;;;;;5053320;28;20032;-59
2022/08/14 09:08:55;;;;;;;6.25;5.35;;;;;;;;;;5053139;28;20106;-60
2022/08/14 09:11:23;;;;;;;9.50;5.70;;;;;;;;;;5044020;28;20028;-60
2022/08/14 09:13:50;;;;;;;6.18;4.95;;;;;;;;;;5052057;28;20484;-60
2022/08/14 09:16:19;;;;;;;6.43;5.30;;;;;;;;;;5050344;28;20484;-59
2022/08/14 09:18:46;;;;;;;8.18;4.90;;;;;;;;;;5043274;28;20452;-60
2022/08/14 09:21:12;;;;;;;8.93;5.57;;;;;;;;;;5046753;28;20040;-60
2022/08/14 09:23:39;;;;;;;5.88;5.28;;;;;;;;;;5052494;28;20033;-59
2022/08/14 09:26:05;;;;;;;7.03;5.32;;;;;;;;;;5049722;28;20025;-60
2022/08/14 09:28:31;;;;;;;8.90;5.32;;;;;;;;;;5050551;28;20013;-59
2022/08/14 09:30:58;;;;;;;10.52;5.50;;;;;;;;;;5048219;28;20366;-60
2022/08/14 09:33:43;;;;;;;7.75;4.65;;;;;;;;;;5046897;28;20025;-60
2022/08/14 09:36:21;;;;;;;6.57;5.13;;;;;;;;;;5039709;28;20112;-60
2022/08/14 09:39:06;;;;;;;9.35;5.07;;;;;;;;;;5052293;28;20036;-60
2022/08/14 09:41:48;;;;;;;10.63;5.18;;;;;;;;;;5052415;28;20421;-59
2022/08/14 09:44:42;;;;;;;5.63;4.45;;;;;;;;;;5047386;28;20182;-59
2022/08/14 09:47:09;;;;;;;5.45;4.45;;;;;;;;;;5047106;28;20029;-60
2022/08/14 09:49:36;;;;;;;5.88;4.85;;;;;;;;;;5049332;28;20112;-59
2022/08/14 09:52:09;;;;;;;6.45;4.18;;;;;;;;;;5041381;28;20087;-59
2022/08/14 09:54:36;;;;;;;;;;;;;;;;;;5044019;28;20025;-60
2022/08/14 09:57:05;;;;;;;9.82;5.38;;;;;;;;;;5049202;28;19912;-60
2022/08/14 09:59:39;;;;;;;7.32;4.68;;;;;;;;;;5042404;28;20026;-60
2022/08/14 10:02:16;;;;;;;5.63;5.03;;;;;;;;;;5049217;28;20036;-59
2022/08/14 10:04:43;;;;;;;9.75;5.03;;;;;;;;;;5046229;28;20054;-59
2022/08/14 10:07:09;;;;;;;5.43;4.43;;;;;;;;;;5046581;28;20044;-59
2022/08/14 10:09:48;;;;;;;7.28;4.57;;;;;;;;;;5039579;28;20515;-60
2022/08/14 10:12:14;;;;;;;8.02;4.30;;;;;;;;;;5042686;28;20029;-60
2022/08/14 10:14:40;;;;;;;6.88;4.18;;;;;;;;;;5046589;28;20040;-59
2022/08/14 10:17:06;;;;;;;3.92;3.53;;;;;;;;;;5044688;28;20481;-59
2022/08/14 10:19:33;;;;;;;4.60;4.10;;;;;;;;;;5042544;28;20028;-60
2022/08/14 10:22:09;;;;;;;7.03;3.45;;;;;;;;;;5046638;28;20064;-60
2022/08/14 10:24:40;;;;;;;5.05;4.38;;;;;;;;;;5043553;28;20454;-60
2022/08/14 10:27:17;;;;;;;6.88;3.80;;;;;;;;;;5041455;28;20044;-60
2022/08/14 10:29:47;;;;;;;7.13;3.53;;;;;;;;;;5047787;28;20021;-61
2022/08/14 10:32:13;;;;;;;5.82;4.00;;;;;;;;;;5049098;28;20060;-60
2022/08/14 10:34:39;;;;;;;7.35;3.10;;;;;;;;;;5049149;28;20088;-60
2022/08/14 10:37:10;;;;;;;7.03;3.40;;;;;;;;;;5044192;28;20353;-60
2022/08/14 10:39:36;;;;;;;4.15;3.30;;;;;;;;;;5051482;28;20024;-60
2022/08/14 10:42:07;;;;;;;6.18;3.42;;;;;;;;;;5048610;28;20045;-60
2022/08/14 10:44:35;;;;;;;9.50;3.53;;;;;;;;;;5047947;28;20112;-60
2022/08/14 10:47:09;;;;;;;6.00;3.17;;;;;;;;;;5041433;28;20040;-60
2022/08/14 10:49:36;;;;;;;6.05;2.88;;;;;;;;;;5044518;28;20051;-60
2022/08/14 10:52:05;;;;;;;4.05;3.13;;;;;;;;;;5051302;28;20060;-57
2022/08/14 10:54:35;;;;;;;5.65;3.22;;;;;;;;;;5041243;28;20335;-57
2022/08/14 10:57:17;;;;;;;4.35;2.97;;;;;;;;;;5042146;28;20026;-57
2022/08/14 10:59:48;;;;;;;10.80;2.45;;;;;;;;;;5038398;28;20121;-56
2022/08/14 11:02:19;;;;;;;5.25;2.30;;;;;;;;;;5045587;28;20021;-57
2022/08/14 11:04:46;;;;;;;4.68;2.50;;;;;;;;;;5046607;28;20036;-57
2022/08/14 11:07:15;;;;;;;6.93;2.00;;;;;;;;;;5046002;28;20401;-57
2022/08/14 11:09:52;;;;;;;6.05;2.25;;;;;;;;;;5043473;28;20086;-57
2022/08/14 11:12:18;;;;;;;3.60;2.03;;;;;;;;;;5049407;28;20877;-57
2022/08/14 11:15:00;;;;;;;3.75;2.40;;;;;;;;;;5046874;28;20025;-60
2022/08/14 11:17:37;;;;;;;5.68;1.98;;;;;;;;;;5043671;28;20153;-60
2022/08/14 11:20:04;;;;;;;6.10;2.78;;;;;;;;;;5043114;28;20036;-60
2022/08/14 11:22:32;;;;;;;3.13;2.63;;;;;;;;;;5046765;28;20044;-59
2022/08/14 11:25:02;;;;;;;5.82;2.50;;;;;;;;;;5048206;28;20446;-59
2022/08/14 11:27:29;;;;;;;6.00;2.33;;;;;;;;;;5051007;28;20031;-60
2022/08/14 11:29:56;;;;;;;5.22;2.45;;;;;;;;;;5045386;28;20072;-60
2022/08/14 11:32:24;;;;;;;4.07;2.50;;;;;;;;;;5051822;28;20032;-60
2022/08/14 11:34:52;;;;;;;3.80;2.45;;;;;;;;;;5048933;28;20029;-57
2022/08/14 11:37:19;;;;;;;3.78;2.35;;;;;;;;;;5049178;28;20029;-57
2022/08/14 11:39:47;;;;;;;6.75;2.20;;;;;;;;;;5051545;28;20057;-59
2022/08/14 11:42:19;;;;;;;4.53;2.13;;;;;;;;;;5045117;28;20025;-59
2022/08/14 11:44:45;;;;;;;7.87;2.40;;;;;;;;;;5051867;28;20055;-60
2022/08/14 11:47:18;;;;;;;4.75;2.80;;;;;;;;;;5050629;28;20028;-59
2022/08/14 11:49:44;;;;;;;5.28;2.20;;;;;;;;;;5049368;28;20536;-56
2022/08/14 11:52:11;;;;;;;6.63;2.53;;;;;;;;;;5049193;28;20381;-59
2022/08/14 11:54:37;;;;;;;5.47;2.47;;;;;;;;;;5044042;28;20480;-60
2022/08/14 11:57:04;;;;;;;4.60;2.40;;;;;;;;;;5043678;28;20076;-60
2022/08/14 11:59:32;;;;;;;4.40;2.15;;;;;;;;;;5058765;28;20064;-59
2022/08/14 12:02:08;;;;;;;3.72;2.42;;;;;;;;;;5047239;28;20021;-59
2022/08/14 12:04:34;;;;;;;5.80;2.47;;;;;;;;;;5049820;28;20021;-60
2022/08/14 12:07:00;;;;;;;3.50;2.17;;;;;;;;;;5045198;28;20060;-60
2022/08/14 12:09:33;;;;;;;7.72;2.55;;;;;;;;;;5049585;28;20514;-60
2022/08/14 12:11:59;;;;;;;5.93;2.30;;;;;;;;;;5060751;28;20029;-60
2022/08/14 12:14:26;;;;;;;2.75;2.42;;;;;;;;;;5051541;28;20068;-58
2022/08/14 12:17:18;;;;;;;4.95;2.38;;;;;;;;;;5059887;28;20479;-58
2022/08/14 12:19:51;;;;;;;3.80;2.20;;;;;;;;;;5046768;28;20120;-58
2022/08/14 12:22:17;;;;;;;;;;;;;;;;;;5043375;28;20100;-58
2022/08/14 12:24:43;;;;;;;3.78;2.03;;;;;;;;;;5046170;28;20019;-57
2022/08/14 12:27:11;;;;;;;6.18;2.90;;;;;;;;;;5053390;28;20112;-59
2022/08/14 12:29:41;;;;;;;7.85;1.60;;;;;;;;;;5058262;28;20480;-58
2022/08/14 12:32:07;;;;;;;3.05;1.63;;;;;;;;;;5052567;28;20086;-58
2022/08/14 12:34:35;;;;;;;4.15;1.90;;;;;;;;;;5047687;28;20428;-58
2022/08/14 12:37:08;;;;;;;8.23;2.30;;;;;;;;;;5068281;28;20017;-58
2022/08/14 12:39:34;;;;;;;2.45;1.60;;;;;;;;;;5064271;28;20017;-58
2022/08/14 12:42:09;;;;;;;3.45;2.22;;;;;;;;;;5043100;28;20545;-58
2022/08/14 12:44:36;;;;;;;8.15;2.08;;;;;;;;;;5050157;28;20025;-57
2022/08/14 12:47:04;;;;;;;5.75;2.30;;;;;;;;;;5045427;28;20029;-58
2022/08/14 12:49:30;;;;;;;3.60;2.13;;;;;;;;;;5045757;28;20088;-58
2022/08/14 12:51:57;;;;;;;6.00;2.28;;;;;;;;;;5050077;28;20036;-58
2022/08/14 12:54:23;;;;;;;3.20;2.08;;;;;;;;;;5047773;28;20480;-58
2022/08/14 12:56:49;;;;;;;4.65;2.08;;;;;;;;;;5049940;28;20026;-58
2022/08/14 12:59:15;;;;;;;4.47;2.03;;;;;;;;;;5042611;28;20017;-58
2022/08/14 13:01:41;;;;;;;4.00;1.90;;;;;;;;;;5046347;28;20562;-58
2022/08/14 13:04:11;;;;;;;3.60;2.00;;;;;;;;;;5026178;28;20025;-59
2022/08/14 13:06:38;;;;;;;5.45;1.90;;;;;;;;;;5040892;28;20037;-59
2022/08/14 13:09:04;;;;;;;4.85;2.38;;;;;;;;;;5044361;28;20037;-58
2022/08/14 13:11:39;;;;;;;4.47;2.10;;;;;;;;;;5050042;28;20025;-58
2022/08/14 13:14:05;;;;;;;3.88;1.50;;;;;;;;;;5048504;28;20119;-59
2022/08/14 13:16:32;;;;;;;4.00;1.70;;;;;;;;;;5049277;28;20033;-59
2022/08/14 13:19:00;;;;;;;2.88;1.67;;;;;;;;;;5044739;28;20021;-58
2022/08/14 13:21:26;;;;;;;4.50;1.88;;;;;;;;;;5041588;28;20029;-58
2022/08/14 13:23:54;;;;;;;4.60;1.70;;;;;;;;;;5049232;28;20095;-58
2022/08/14 13:26:20;;;;;;;4.18;1.63;;;;;;;;;;5038751;28;20473;-58
2022/08/14 13:28:47;;;;;;;3.47;1.90;;;;;;;;;;5050552;28;20500;-58
2022/08/14 13:31:15;;;;;;;5.60;1.63;;;;;;;;;;5046871;28;20048;-58
2022/08/14 13:33:41;;;;;;;4.78;1.60;;;;;;;;;;5050251;28;20111;-58
2022/08/14 13:36:08;;;;;;;4.75;1.80;;;;;;;;;;5046643;28;20021;-59
2022/08/14 13:38:34;;;;;;;2.72;1.90;;;;;;;;;;5037979;28;20013;-58
2022/08/14 13:41:01;;;;;;;2.80;1.75;;;;;;;;;;5048728;28;20033;-58
2022/08/14 13:43:28;;;;;;;5.50;2.13;;;;;;;;;;5047288;28;20146;-58
2022/08/14 13:45:55;;;;;;;3.67;1.73;;;;;;;;;;5052238;28;20078;-59
2022/08/14 13:48:22;;;;;;;3.85;1.60;;;;;;;;;;5053770;28;20531;-59
2022/08/14 13:50:52;;;;;;;6.05;1.83;;;;;;;;;;5053062;28;20025;-58
2022/08/14 13:53:20;;;;;;;2.30;1.70;;;;;;;;;;5054109;28;20029;-58
2022/08/14 13:55:47;;;;;;;5.72;1.65;;;;;;;;;;5053960;28;20025;-57
2022/08/14 13:58:14;;;;;;;2.90;1.80;;;;;;;;;;5049337;28;20025;-58
2022/08/14 14:00:40;;;;;;;5.38;1.80;;;;;;;;;;5050989;28;20032;-58
2022/08/14 14:03:07;;;;;;;1.95;1.60;;;;;;;;;;5052366;28;20033;-58
2022/08/14 14:05:35;;;;;;;3.75;1.67;;;;;;;;;;5045754;28;20034;-58
2022/08/14 14:08:06;;;;;;;2.30;1.60;;;;;;;;;;5047263;28;20495;-61
2022/08/14 14:10:35;;;;;;;4.07;1.90;;;;;;;;;;5040376;28;20049;-58
2022/08/14 14:13:01;;;;;;;3.63;1.52;;;;;;;;;;5051322;28;20472;-57
2022/08/14 14:15:27;;;;;;;1.70;1.38;;;;;;;;;;5049602;28;20045;-58
2022/08/14 14:17:55;;;;;;;3.58;1.52;;;;;;;;;;5051221;28;20060;-58
2022/08/14 14:20:23;;;;;;;2.28;1.40;;;;;;;;;;5048437;28;20049;-58
2022/08/14 14:22:49;;;;;;;2.38;1.45;;;;;;;;;;5046609;28;20401;-59
2022/08/14 14:25:17;;;;;;;1.98;1.10;;;;;;;;;;5046312;28;20047;-58
2022/08/14 14:27:44;;;;;;;3.13;1.40;;;;;;;;;;5045540;28;20756;-59
2022/08/14 14:30:10;;;;;;;2.88;1.50;;;;;;;;;;5045515;28;20061;-59
2022/08/14 14:32:44;;;;;;;3.17;1.20;;;;;;;;;;5042197;28;20041;-59
2022/08/14 14:35:14;;;;;;;4.50;1.27;;;;;;;;;;5043654;28;20025;-58
2022/08/14 14:37:40;;;;;;;7.20;1.23;;;;;;;;;;5052533;28;20101;-58
2022/08/14 14:40:07;;;;;;;2.20;1.92;;;;;;;;;;5042922;28;20040;-59
2022/08/14 14:42:34;;;;;;;2.35;1.25;;;;;;;;;;5044496;28;20068;-58
2022/08/14 14:45:03;;;;;;;2.90;1.30;;;;;;;;;;5034854;28;20381;-58
2022/08/14 14:47:29;;;;;;;3.65;1.30;;;;;;;;;;5032927;28;20036;-58
2022/08/14 14:49:55;;;;;;;2.35;1.35;;;;;;;;;;5033800;28;20024;-58
2022/08/14 14:52:22;;;;;;;3.83;1.20;;;;;;;;;;5037582;28;20028;-58